sensor_id;sensor_type;location;lat;lon;timestamp;pressure;altitude;pressure_sealevel;temperature;humidity
44765;BME280;30484;52.382;5.260;2023-11-21T00:00:11;101248.63;;;9.48;100.00
44765;BME280;30484;52.382;5.260;2023-11-21T00:02:41;101253.97;;;9.48;100.00
44765;BME280;30484;52.382;5.260;2023-11-21T00:05:12;101260.13;;;9.50;100.00
44765;BME280;30484;52.382;5.260;2023-11-21T00:07:41;101247.41;;;9.57;100.00
44765;BME280;30484;52.382;5.260;2023-11-21T00:10:11;101255.28;;;9.60;100.00
44765;BME280;30484;52.382;5.260;2023-11-21T00:12:43;101252.72;;;9.57;100.00
44765;BME280;30484;52.382;5.260;2023-11-21T00:15:12;101270.41;;;9.60;100.00
44765;BME280;30484;52.382;5.260;2023-11-21T00:17:40;101266.63;;;9.65;100.00
44765;BME280;30484;52.382;5.260;2023-11-21T00:20:10;101279.13;;;9.65;100.00
44765;BME280;30484;52.382;5.260;2023-11-21T00:22:41;101276.06;;;9.74;100.00
44765;BME280;30484;52.382;5.260;2023-11-21T00:25:11;101272.28;;;9.80;100.00
44765;BME280;30484;52.382;5.260;2023-11-21T00:27:43;101271.31;;;9.82;100.00
44765;BME280;30484;52.382;5.260;2023-11-21T00:30:13;101282.66;;;9.88;100.00
44765;BME280;30484;52.382;5.260;2023-11-21T00:32:42;101281.59;;;9.92;100.00
44765;BME280;30484;52.382;5.260;2023-11-21T00:35:11;101280.41;;;9.99;100.00
44765;BME280;30484;52.382;5.260;2023-11-21T00:37:39;101274.91;;;10.04;100.00
44765;BME280;30484;52.382;5.260;2023-11-21T00:40:09;101281.84;;;10.08;100.00
44765;BME280;30484;52.382;5.260;2023-11-21T00:42:38;101281.41;;;10.18;100.00
44765;BME280;30484;52.382;5.260;2023-11-21T00:45:10;101282.22;;;10.21;100.00
44765;BME280;30484;52.382;5.260;2023-11-21T00:47:38;101276.59;;;10.27;100.00
44765;BME280;30484;52.382;5.260;2023-11-21T00:50:08;101275.75;;;10.26;100.00
44765;BME280;30484;52.382;5.260;2023-11-21T00:52:37;101279.97;;;10.32;100.00
44765;BME280;30484;52.382;5.260;2023-11-21T00:55:06;101281.56;;;10.36;100.00
44765;BME280;30484;52.382;5.260;2023-11-21T00:57:35;101286.75;;;10.41;100.00
44765;BME280;30484;52.382;5.260;2023-11-21T01:00:08;101288.53;;;10.40;100.00
44765;BME280;30484;52.382;5.260;2023-11-21T01:02:41;101292.63;;;10.49;100.00
44765;BME280;30484;52.382;5.260;2023-11-21T01:05:10;101296.16;;;10.49;100.00
44765;BME280;30484;52.382;5.260;2023-11-21T01:07:39;101295.91;;;10.56;100.00
44765;BME280;30484;52.382;5.260;2023-11-21T01:10:09;101301.38;;;10.52;100.00
44765;BME280;30484;52.382;5.260;2023-11-21T01:12:38;101298.56;;;10.35;100.00
44765;BME280;30484;52.382;5.260;2023-11-21T01:15:08;101297.91;;;10.50;100.00
44765;BME280;30484;52.382;5.260;2023-11-21T01:17:39;101297.31;;;10.44;100.00
44765;BME280;30484;52.382;5.260;2023-11-21T01:20:10;101308.59;;;10.50;100.00
44765;BME280;30484;52.382;5.260;2023-11-21T01:22:41;101304.97;;;10.51;100.00
44765;BME280;30484;52.382;5.260;2023-11-21T01:25:10;101317.13;;;10.59;100.00
44765;BME280;30484;52.382;5.260;2023-11-21T01:27:41;101311.53;;;10.65;100.00
44765;BME280;30484;52.382;5.260;2023-11-21T01:30:11;101321.16;;;10.69;100.00
44765;BME280;30484;52.382;5.260;2023-11-21T01:32:40;101315.63;;;10.74;100.00
44765;BME280;30484;52.382;5.260;2023-11-21T01:35:09;101316.47;;;10.74;100.00
44765;BME280;30484;52.382;5.260;2023-11-21T01:37:38;101328.13;;;10.73;100.00
44765;BME280;30484;52.382;5.260;2023-11-21T01:40:09;101335.19;;;10.74;100.00
44765;BME280;30484;52.382;5.260;2023-11-21T01:42:41;101336.19;;;10.71;100.00
44765;BME280;30484;52.382;5.260;2023-11-21T01:45:13;101334.41;;;10.72;100.00
44765;BME280;30484;52.382;5.260;2023-11-21T01:47:42;101331.03;;;10.67;100.00
44765;BME280;30484;52.382;5.260;2023-11-21T01:50:16;101337.31;;;10.66;100.00
44765;BME280;30484;52.382;5.260;2023-11-21T01:52:46;101335.19;;;10.74;100.00
44765;BME280;30484;52.382;5.260;2023-11-21T01:55:17;101339.75;;;10.72;100.00
44765;BME280;30484;52.382;5.260;2023-11-21T01:57:55;101336.13;;;10.73;100.00
44765;BME280;30484;52.382;5.260;2023-11-21T02:00:26;101343.06;;;10.77;100.00
44765;BME280;30484;52.382;5.260;2023-11-21T02:02:56;101346.63;;;10.78;100.00
44765;BME280;30484;52.382;5.260;2023-11-21T02:05:27;101343.94;;;10.78;100.00
44765;BME280;30484;52.382;5.260;2023-11-21T02:07:57;101337.63;;;10.80;100.00
44765;BME280;30484;52.382;5.260;2023-11-21T02:10:25;101350.03;;;10.81;100.00
44765;BME280;30484;52.382;5.260;2023-11-21T02:12:54;101355.28;;;10.83;100.00
44765;BME280;30484;52.382;5.260;2023-11-21T02:15:25;101357.91;;;10.84;100.00
44765;BME280;30484;52.382;5.260;2023-11-21T02:17:56;101354.56;;;10.79;100.00
44765;BME280;30484;52.382;5.260;2023-11-21T02:20:26;101361.78;;;10.77;100.00
44765;BME280;30484;52.382;5.260;2023-11-21T02:22:58;101363.66;;;10.75;100.00
44765;BME280;30484;52.382;5.260;2023-11-21T02:25:29;101366.31;;;10.75;100.00
44765;BME280;30484;52.382;5.260;2023-11-21T02:28:00;101357.44;;;10.75;100.00
44765;BME280;30484;52.382;5.260;2023-11-21T02:30:30;101362.66;;;10.78;100.00
44765;BME280;30484;52.382;5.260;2023-11-21T02:32:59;101369.84;;;10.76;100.00
44765;BME280;30484;52.382;5.260;2023-11-21T02:35:29;101368.06;;;10.76;100.00
44765;BME280;30484;52.382;5.260;2023-11-21T02:38:00;101369.00;;;10.75;100.00
44765;BME280;30484;52.382;5.260;2023-11-21T02:40:29;101366.31;;;10.75;100.00
44765;BME280;30484;52.382;5.260;2023-11-21T02:42:58;101373.56;;;10.73;100.00
44765;BME280;30484;52.382;5.260;2023-11-21T02:45:27;101371.00;;;10.70;100.00
44765;BME280;30484;52.382;5.260;2023-11-21T02:47:56;101369.19;;;10.70;100.00
44765;BME280;30484;52.382;5.260;2023-11-21T02:50:26;101370.13;;;10.69;100.00
44765;BME280;30484;52.382;5.260;2023-11-21T02:52:55;101367.78;;;10.62;100.00
44765;BME280;30484;52.382;5.260;2023-11-21T02:55:26;101366.97;;;10.60;100.00
44765;BME280;30484;52.382;5.260;2023-11-21T02:57:54;101372.25;;;10.61;100.00
44765;BME280;30484;52.382;5.260;2023-11-21T03:00:25;101372.19;;;10.63;100.00
44765;BME280;30484;52.382;5.260;2023-11-21T03:02:55;101375.81;;;10.62;100.00
44765;BME280;30484;52.382;5.260;2023-11-21T03:05:25;101369.56;;;10.61;100.00
44765;BME280;30484;52.382;5.260;2023-11-21T03:07:53;101376.47;;;10.67;100.00
44765;BME280;30484;52.382;5.260;2023-11-21T03:10:22;101379.97;;;10.69;100.00
44765;BME280;30484;52.382;5.260;2023-11-21T03:12:52;101383.19;;;10.55;100.00
44765;BME280;30484;52.382;5.260;2023-11-21T03:15:21;101385.47;;;10.64;100.00
44765;BME280;30484;52.382;5.260;2023-11-21T03:17:49;101387.16;;;10.67;100.00
44765;BME280;30484;52.382;5.260;2023-11-21T03:20:18;101389.69;;;10.70;100.00
44765;BME280;30484;52.382;5.260;2023-11-21T03:22:47;101380.75;;;10.71;100.00
44765;BME280;30484;52.382;5.260;2023-11-21T03:25:16;101390.44;;;10.74;100.00
44765;BME280;30484;52.382;5.260;2023-11-21T03:27:45;101397.72;;;10.70;100.00
44765;BME280;30484;52.382;5.260;2023-11-21T03:30:16;101401.94;;;10.76;100.00
44765;BME280;30484;52.382;5.260;2023-11-21T03:32:45;101403.53;;;10.80;100.00
44765;BME280;30484;52.382;5.260;2023-11-21T03:35:13;101403.59;;;10.78;100.00
44765;BME280;30484;52.382;5.260;2023-11-21T03:37:42;101398.34;;;10.77;100.00
44765;BME280;30484;52.382;5.260;2023-11-21T03:40:11;101410.78;;;10.78;100.00
44765;BME280;30484;52.382;5.260;2023-11-21T03:42:41;101406.91;;;10.85;100.00
44765;BME280;30484;52.382;5.260;2023-11-21T03:45:10;101408.66;;;10.86;100.00
44765;BME280;30484;52.382;5.260;2023-11-21T03:47:41;101406.63;;;10.91;100.00
44765;BME280;30484;52.382;5.260;2023-11-21T03:50:10;101405.50;;;10.97;100.00
44765;BME280;30484;52.382;5.260;2023-11-21T03:52:39;101414.06;;;11.05;100.00
44765;BME280;30484;52.382;5.260;2023-11-21T03:55:08;101406.84;;;11.07;100.00
44765;BME280;30484;52.382;5.260;2023-11-21T03:57:37;101425.44;;;11.10;100.00
44765;BME280;30484;52.382;5.260;2023-11-21T04:00:08;101424.47;;;11.11;100.00
44765;BME280;30484;52.382;5.260;2023-11-21T04:02:38;101429.84;;;11.11;100.00
44765;BME280;30484;52.382;5.260;2023-11-21T04:05:08;101432.38;;;11.14;100.00
44765;BME280;30484;52.382;5.260;2023-11-21T04:07:37;101434.97;;;11.16;100.00
44765;BME280;30484;52.382;5.260;2023-11-21T04:10:08;101438.81;;;11.10;100.00
44765;BME280;30484;52.382;5.260;2023-11-21T04:12:39;101435.66;;;11.00;100.00
44765;BME280;30484;52.382;5.260;2023-11-21T04:15:09;101444.19;;;10.88;100.00
44765;BME280;30484;52.382;5.260;2023-11-21T04:17:38;101449.69;;;11.05;100.00
44765;BME280;30484;52.382;5.260;2023-11-21T04:20:10;101449.34;;;10.93;100.00
44765;BME280;30484;52.382;5.260;2023-11-21T04:22:38;101457.75;;;10.83;100.00
44765;BME280;30484;52.382;5.260;2023-11-21T04:25:13;101472.47;;;10.94;100.00
44765;BME280;30484;52.382;5.260;2023-11-21T04:27:43;101483.25;;;11.13;100.00
44765;BME280;30484;52.382;5.260;2023-11-21T04:30:13;101469.03;;;11.12;100.00
44765;BME280;30484;52.382;5.260;2023-11-21T04:32:42;101481.47;;;11.13;100.00
44765;BME280;30484;52.382;5.260;2023-11-21T04:35:12;101480.19;;;11.22;100.00
44765;BME280;30484;52.382;5.260;2023-11-21T04:37:41;101475.56;;;11.26;100.00
44765;BME280;30484;52.382;5.260;2023-11-21T04:40:11;101479.28;;;11.23;100.00
44765;BME280;30484;52.382;5.260;2023-11-21T04:42:40;101486.75;;;11.35;100.00
44765;BME280;30484;52.382;5.260;2023-11-21T04:45:09;101487.50;;;11.39;100.00
44765;BME280;30484;52.382;5.260;2023-11-21T04:47:40;101495.94;;;11.50;100.00
44765;BME280;30484;52.382;5.260;2023-11-21T04:50:09;101491.28;;;11.54;100.00
44765;BME280;30484;52.382;5.260;2023-11-21T04:52:39;101490.97;;;11.62;100.00
44765;BME280;30484;52.382;5.260;2023-11-21T04:55:08;101487.22;;;11.66;100.00
44765;BME280;30484;52.382;5.260;2023-11-21T04:57:38;101491.50;;;11.49;100.00
44765;BME280;30484;52.382;5.260;2023-11-21T05:00:10;101505.22;;;11.62;100.00
44765;BME280;30484;52.382;5.260;2023-11-21T05:02:40;101506.03;;;11.44;100.00
44765;BME280;30484;52.382;5.260;2023-11-21T05:05:11;101513.25;;;11.62;100.00
44765;BME280;30484;52.382;5.260;2023-11-21T05:07:41;101517.28;;;11.52;100.00
44765;BME280;30484;52.382;5.260;2023-11-21T05:10:10;101520.53;;;11.58;100.00
44765;BME280;30484;52.382;5.260;2023-11-21T05:12:42;101521.47;;;11.57;100.00
44765;BME280;30484;52.382;5.260;2023-11-21T05:15:14;101518.34;;;11.48;100.00
44765;BME280;30484;52.382;5.260;2023-11-21T05:17:45;101520.00;;;11.71;100.00
44765;BME280;30484;52.382;5.260;2023-11-21T05:20:15;101520.81;;;11.73;100.00
44765;BME280;30484;52.382;5.260;2023-11-21T05:22:49;101520.31;;;11.84;100.00
44765;BME280;30484;52.382;5.260;2023-11-21T05:25:18;101514.66;;;11.71;100.00
44765;BME280;30484;52.382;5.260;2023-11-21T05:27:47;101518.94;;;11.75;100.00
44765;BME280;30484;52.382;5.260;2023-11-21T05:30:15;101520.59;;;11.78;100.00
44765;BME280;30484;52.382;5.260;2023-11-21T05:32:43;101531.63;;;11.70;100.00
44765;BME280;30484;52.382;5.260;2023-11-21T05:35:14;101538.28;;;11.82;100.00
44765;BME280;30484;52.382;5.260;2023-11-21T05:37:45;101537.28;;;11.84;100.00
44765;BME280;30484;52.382;5.260;2023-11-21T05:40:15;101544.16;;;11.69;100.00
44765;BME280;30484;52.382;5.260;2023-11-21T05:42:44;101542.16;;;11.74;100.00
44765;BME280;30484;52.382;5.260;2023-11-21T05:45:13;101553.88;;;11.72;100.00
44765;BME280;30484;52.382;5.260;2023-11-21T05:47:44;101546.16;;;11.64;100.00
44765;BME280;30484;52.382;5.260;2023-11-21T05:50:16;101556.94;;;11.63;100.00
44765;BME280;30484;52.382;5.260;2023-11-21T05:52:47;101562.16;;;11.86;100.00
44765;BME280;30484;52.382;5.260;2023-11-21T05:55:17;101566.38;;;11.92;100.00
44765;BME280;30484;52.382;5.260;2023-11-21T05:57:48;101566.38;;;11.92;100.00
44765;BME280;30484;52.382;5.260;2023-11-21T06:00:17;101565.03;;;11.82;100.00
44765;BME280;30484;52.382;5.260;2023-11-21T06:02:49;101580.50;;;11.75;100.00
44765;BME280;30484;52.382;5.260;2023-11-21T06:05:22;101585.31;;;11.87;100.00
44765;BME280;30484;52.382;5.260;2023-11-21T06:07:53;101582.66;;;11.87;100.00
44765;BME280;30484;52.382;5.260;2023-11-21T06:10:23;101587.31;;;11.82;100.00
44765;BME280;30484;52.382;5.260;2023-11-21T06:12:53;101591.91;;;12.01;100.00
44765;BME280;30484;52.382;5.260;2023-11-21T06:15:22;101595.78;;;11.94;100.00
44765;BME280;30484;52.382;5.260;2023-11-21T06:17:52;101605.50;;;11.96;100.00
44765;BME280;30484;52.382;5.260;2023-11-21T06:20:21;101598.47;;;11.94;100.00
44765;BME280;30484;52.382;5.260;2023-11-21T06:22:51;101602.31;;;11.86;100.00
44765;BME280;30484;52.382;5.260;2023-11-21T06:25:20;101602.09;;;11.91;100.00
44765;BME280;30484;52.382;5.260;2023-11-21T06:27:50;101607.44;;;12.13;100.00
44765;BME280;30484;52.382;5.260;2023-11-21T06:30:21;101602.53;;;12.23;100.00
44765;BME280;30484;52.382;5.260;2023-11-21T06:32:50;101603.16;;;12.09;100.00
44765;BME280;30484;52.382;5.260;2023-11-21T06:35:20;101611.03;;;12.12;100.00
44765;BME280;30484;52.382;5.260;2023-11-21T06:37:49;101616.75;;;12.04;100.00
44765;BME280;30484;52.382;5.260;2023-11-21T06:40:19;101622.22;;;12.22;100.00
44765;BME280;30484;52.382;5.260;2023-11-21T06:42:50;101622.97;;;12.05;100.00
44765;BME280;30484;52.382;5.260;2023-11-21T06:45:19;101627.56;;;12.22;100.00
44765;BME280;30484;52.382;5.260;2023-11-21T06:47:48;101629.41;;;12.21;100.00
44765;BME280;30484;52.382;5.260;2023-11-21T06:50:18;101624.16;;;12.18;100.00
44765;BME280;30484;52.382;5.260;2023-11-21T06:52:46;101632.78;;;12.25;100.00
44765;BME280;30484;52.382;5.260;2023-11-21T06:55:15;101633.78;;;12.22;100.00
44765;BME280;30484;52.382;5.260;2023-11-21T06:57:44;101637.69;;;12.15;100.00
44765;BME280;30484;52.382;5.260;2023-11-21T07:00:17;101651.16;;;12.14;100.00
44765;BME280;30484;52.382;5.260;2023-11-21T07:02:46;101658.47;;;12.10;100.00
44765;BME280;30484;52.382;5.260;2023-11-21T07:05:15;101660.94;;;12.15;100.00
44765;BME280;30484;52.382;5.260;2023-11-21T07:07:50;101666.38;;;12.13;100.00
44765;BME280;30484;52.382;5.260;2023-11-21T07:10:21;101671.97;;;12.07;100.00
44765;BME280;30484;52.382;5.260;2023-11-21T07:12:50;101669.69;;;12.18;100.00
44765;BME280;30484;52.382;5.260;2023-11-21T07:15:20;101671.72;;;12.13;100.00
44765;BME280;30484;52.382;5.260;2023-11-21T07:17:49;101662.34;;;12.23;100.00
44765;BME280;30484;52.382;5.260;2023-11-21T07:20:18;101669.97;;;12.12;100.00
44765;BME280;30484;52.382;5.260;2023-11-21T07:22:47;101669.59;;;12.21;100.00
44765;BME280;30484;52.382;5.260;2023-11-21T07:25:15;101675.81;;;12.22;100.00
44765;BME280;30484;52.382;5.260;2023-11-21T07:27:44;101680.16;;;12.24;100.00
44765;BME280;30484;52.382;5.260;2023-11-21T07:30:13;101689.72;;;12.09;100.00
44765;BME280;30484;52.382;5.260;2023-11-21T07:32:43;101701.59;;;12.24;100.00
44765;BME280;30484;52.382;5.260;2023-11-21T07:35:12;101715.16;;;12.20;100.00
44765;BME280;30484;52.382;5.260;2023-11-21T07:37:40;101713.31;;;12.22;100.00
44765;BME280;30484;52.382;5.260;2023-11-21T07:40:11;101716.84;;;12.22;100.00
44765;BME280;30484;52.382;5.260;2023-11-21T07:42:41;101730.00;;;12.29;100.00
44765;BME280;30484;52.382;5.260;2023-11-21T07:45:10;101726.34;;;12.30;100.00
44765;BME280;30484;52.382;5.260;2023-11-21T07:47:39;101724.59;;;12.08;100.00
44765;BME280;30484;52.382;5.260;2023-11-21T07:50:10;101743.91;;;12.16;100.00
44765;BME280;30484;52.382;5.260;2023-11-21T07:52:40;101752.66;;;12.20;100.00
44765;BME280;30484;52.382;5.260;2023-11-21T07:55:09;101744.59;;;12.21;100.00
44765;BME280;30484;52.382;5.260;2023-11-21T07:57:38;101753.91;;;12.33;100.00
44765;BME280;30484;52.382;5.260;2023-11-21T08:00:08;101750.13;;;12.17;100.00
44765;BME280;30484;52.382;5.260;2023-11-21T08:02:39;101761.59;;;12.41;100.00
44765;BME280;30484;52.382;5.260;2023-11-21T08:05:12;101748.22;;;12.20;100.00
44765;BME280;30484;52.382;5.260;2023-11-21T08:07:51;101761.88;;;12.35;100.00
44765;BME280;30484;52.382;5.260;2023-11-21T08:10:20;101766.97;;;12.41;100.00
44765;BME280;30484;52.382;5.260;2023-11-21T08:12:49;101787.53;;;12.40;100.00
44765;BME280;30484;52.382;5.260;2023-11-21T08:15:18;101786.91;;;12.13;100.00
44765;BME280;30484;52.382;5.260;2023-11-21T08:17:48;101799.94;;;12.43;100.00
44765;BME280;30484;52.382;5.260;2023-11-21T08:20:18;101794.25;;;12.30;100.00
44765;BME280;30484;52.382;5.260;2023-11-21T08:22:47;101805.72;;;12.54;100.00
44765;BME280;30484;52.382;5.260;2023-11-21T08:25:15;101804.97;;;12.51;100.00
44765;BME280;30484;52.382;5.260;2023-11-21T08:27:47;101806.09;;;12.45;100.00
44765;BME280;30484;52.382;5.260;2023-11-21T08:30:16;101808.81;;;12.66;100.00
44765;BME280;30484;52.382;5.260;2023-11-21T08:32:46;101814.13;;;12.45;100.00
44765;BME280;30484;52.382;5.260;2023-11-21T08:35:17;101812.94;;;12.52;100.00
44765;BME280;30484;52.382;5.260;2023-11-21T08:37:46;101821.72;;;12.56;100.00
44765;BME280;30484;52.382;5.260;2023-11-21T08:40:15;101826.69;;;12.45;100.00
44765;BME280;30484;52.382;5.260;2023-11-21T08:42:44;101838.03;;;12.51;100.00
44765;BME280;30484;52.382;5.260;2023-11-21T08:45:14;101832.53;;;12.54;100.00
44765;BME280;30484;52.382;5.260;2023-11-21T08:47:45;101839.94;;;12.48;100.00
44765;BME280;30484;52.382;5.260;2023-11-21T08:50:14;101847.28;;;12.42;100.00
44765;BME280;30484;52.382;5.260;2023-11-21T08:52:44;101862.66;;;12.39;100.00
44765;BME280;30484;52.382;5.260;2023-11-21T08:55:14;101864.56;;;12.57;100.00
44765;BME280;30484;52.382;5.260;2023-11-21T08:57:44;101855.66;;;12.35;100.00
44765;BME280;30484;52.382;5.260;2023-11-21T09:00:14;101859.34;;;12.32;100.00
44765;BME280;30484;52.382;5.260;2023-11-21T09:02:45;101861.28;;;12.29;100.00
44765;BME280;30484;52.382;5.260;2023-11-21T09:05:14;101867.09;;;12.40;100.00
44765;BME280;30484;52.382;5.260;2023-11-21T09:07:45;101875.66;;;12.48;100.00
44765;BME280;30484;52.382;5.260;2023-11-21T09:10:16;101879.91;;;12.32;100.00
44765;BME280;30484;52.382;5.260;2023-11-21T09:12:44;101881.63;;;12.55;100.00
44765;BME280;30484;52.382;5.260;2023-11-21T09:15:13;101885.50;;;12.48;100.00
44765;BME280;30484;52.382;5.260;2023-11-21T09:17:42;101887.13;;;12.52;100.00
44765;BME280;30484;52.382;5.260;2023-11-21T09:20:12;101884.22;;;12.36;100.00
44765;BME280;30484;52.382;5.260;2023-11-21T09:22:46;101888.03;;;12.30;100.00
44765;BME280;30484;52.382;5.260;2023-11-21T09:25:15;101887.97;;;12.32;100.00
44765;BME280;30484;52.382;5.260;2023-11-21T09:27:45;101901.66;;;12.46;100.00
44765;BME280;30484;52.382;5.260;2023-11-21T09:30:14;101895.47;;;12.44;100.00
44765;BME280;30484;52.382;5.260;2023-11-21T09:32:43;101900.09;;;12.40;100.00
44765;BME280;30484;52.382;5.260;2023-11-21T09:35:13;101903.72;;;12.39;100.00
44765;BME280;30484;52.382;5.260;2023-11-21T09:37:43;101910.50;;;12.48;100.00
44765;BME280;30484;52.382;5.260;2023-11-21T09:40:22;101914.19;;;12.23;100.00
44765;BME280;30484;52.382;5.260;2023-11-21T09:42:55;101921.03;;;12.31;100.00
44765;BME280;30484;52.382;5.260;2023-11-21T09:45:27;101939.25;;;12.45;100.00
44765;BME280;30484;52.382;5.260;2023-11-21T09:47:56;101947.34;;;12.43;100.00
44765;BME280;30484;52.382;5.260;2023-11-21T09:50:26;101945.78;;;12.37;100.00
44765;BME280;30484;52.382;5.260;2023-11-21T09:53:02;101951.03;;;12.40;100.00
44765;BME280;30484;52.382;5.260;2023-11-21T09:55:36;101942.91;;;12.42;100.00
44765;BME280;30484;52.382;5.260;2023-11-21T09:58:06;101952.28;;;12.32;100.00
44765;BME280;30484;52.382;5.260;2023-11-21T10:00:35;101954.22;;;12.50;100.00
44765;BME280;30484;52.382;5.260;2023-11-21T10:03:03;101959.94;;;12.41;100.00
44765;BME280;30484;52.382;5.260;2023-11-21T10:05:32;101963.13;;;12.51;100.00
44765;BME280;30484;52.382;5.260;2023-11-21T10:08:03;101956.88;;;12.50;100.00
44765;BME280;30484;52.382;5.260;2023-11-21T10:10:35;101965.41;;;12.38;100.00
44765;BME280;30484;52.382;5.260;2023-11-21T10:13:06;101973.91;;;12.27;100.00
44765;BME280;30484;52.382;5.260;2023-11-21T10:15:35;101987.22;;;12.29;100.00
44765;BME280;30484;52.382;5.260;2023-11-21T10:18:04;101993.50;;;12.28;100.00
44765;BME280;30484;52.382;5.260;2023-11-21T10:20:33;102005.66;;;12.14;100.00
44765;BME280;30484;52.382;5.260;2023-11-21T10:23:04;102010.63;;;12.47;100.00
44765;BME280;30484;52.382;5.260;2023-11-21T10:25:36;102013.78;;;12.35;100.00
44765;BME280;30484;52.382;5.260;2023-11-21T10:28:05;102014.50;;;12.38;100.00
44765;BME280;30484;52.382;5.260;2023-11-21T10:30:35;102011.81;;;12.40;100.00
44765;BME280;30484;52.382;5.260;2023-11-21T10:33:05;102014.81;;;12.31;100.00
44765;BME280;30484;52.382;5.260;2023-11-21T10:35:42;102024.81;;;12.27;100.00
44765;BME280;30484;52.382;5.260;2023-11-21T10:38:14;102027.94;;;12.15;100.00
44765;BME280;30484;52.382;5.260;2023-11-21T10:40:44;102034.22;;;12.37;100.00
44765;BME280;30484;52.382;5.260;2023-11-21T10:43:14;102022.63;;;12.37;100.00
44765;BME280;30484;52.382;5.260;2023-11-21T10:45:44;102031.81;;;12.53;100.00
44765;BME280;30484;52.382;5.260;2023-11-21T10:48:14;102023.31;;;12.42;100.00
44765;BME280;30484;52.382;5.260;2023-11-21T10:50:45;102022.53;;;12.40;100.00
44765;BME280;30484;52.382;5.260;2023-11-21T10:53:14;102026.13;;;12.39;100.00
44765;BME280;30484;52.382;5.260;2023-11-21T10:55:45;102029.72;;;12.38;100.00
44765;BME280;30484;52.382;5.260;2023-11-21T10:58:14;102041.56;;;12.56;100.00
44765;BME280;30484;52.382;5.260;2023-11-21T11:00:43;102044.22;;;12.78;100.00
44765;BME280;30484;52.382;5.260;2023-11-21T11:03:13;102043.00;;;12.65;100.00
44765;BME280;30484;52.382;5.260;2023-11-21T11:05:44;102041.09;;;12.45;100.00
44765;BME280;30484;52.382;5.260;2023-11-21T11:08:21;102044.38;;;12.75;100.00
44765;BME280;30484;52.382;5.260;2023-11-21T11:10:56;102045.41;;;12.71;100.00
44765;BME280;30484;52.382;5.260;2023-11-21T11:13:26;102048.53;;;12.82;100.00
44765;BME280;30484;52.382;5.260;2023-11-21T11:15:59;102053.59;;;12.68;100.00
44765;BME280;30484;52.382;5.260;2023-11-21T11:18:30;102054.53;;;12.89;100.00
44765;BME280;30484;52.382;5.260;2023-11-21T11:21:07;102054.59;;;12.87;100.00
44765;BME280;30484;52.382;5.260;2023-11-21T11:23:56;102063.84;;;12.80;100.00
44765;BME280;30484;52.382;5.260;2023-11-21T11:26:42;102069.41;;;12.74;100.00
44765;BME280;30484;52.382;5.260;2023-11-21T11:29:23;102064.63;;;12.60;100.00
44765;BME280;30484;52.382;5.260;2023-11-21T11:32:06;102065.34;;;12.18;100.00
44765;BME280;30484;52.382;5.260;2023-11-21T11:34:46;102077.31;;;12.31;100.00
44765;BME280;30484;52.382;5.260;2023-11-21T11:37:17;102084.03;;;12.19;100.00
44765;BME280;30484;52.382;5.260;2023-11-21T11:39:46;102092.31;;;12.13;100.00
44765;BME280;30484;52.382;5.260;2023-11-21T11:42:17;102100.09;;;12.19;100.00
44765;BME280;30484;52.382;5.260;2023-11-21T11:44:50;102095.41;;;12.26;100.00
44765;BME280;30484;52.382;5.260;2023-11-21T11:47:26;102096.81;;;12.11;100.00
44765;BME280;30484;52.382;5.260;2023-11-21T11:50:04;102088.22;;;12.26;100.00
44765;BME280;30484;52.382;5.260;2023-11-21T11:52:38;102092.00;;;12.21;100.00
44765;BME280;30484;52.382;5.260;2023-11-21T11:55:10;102094.97;;;12.13;100.00
44765;BME280;30484;52.382;5.260;2023-11-21T11:57:42;102098.34;;;12.18;100.00
44765;BME280;30484;52.382;5.260;2023-11-21T12:00:16;102105.09;;;12.05;100.00
44765;BME280;30484;52.382;5.260;2023-11-21T12:02:47;102110.44;;;12.05;100.00
44765;BME280;30484;52.382;5.260;2023-11-21T12:05:19;102107.34;;;12.17;100.00
44765;BME280;30484;52.382;5.260;2023-11-21T12:07:50;102103.91;;;12.37;100.00
44765;BME280;30484;52.382;5.260;2023-11-21T12:10:22;102110.50;;;12.29;100.00
44765;BME280;30484;52.382;5.260;2023-11-21T12:12:55;102114.78;;;12.09;100.00
44765;BME280;30484;52.382;5.260;2023-11-21T12:15:25;102103.19;;;12.08;100.00
44765;BME280;30484;52.382;5.260;2023-11-21T12:17:56;102109.84;;;11.97;100.00
44765;BME280;30484;52.382;5.260;2023-11-21T12:20:29;102119.78;;;12.18;100.00
44765;BME280;30484;52.382;5.260;2023-11-21T12:22:59;102120.44;;;12.00;100.00
44765;BME280;30484;52.382;5.260;2023-11-21T12:25:30;102121.28;;;12.02;100.00
44765;BME280;30484;52.382;5.260;2023-11-21T12:28:02;102113.94;;;12.07;100.00
44765;BME280;30484;52.382;5.260;2023-11-21T12:30:34;102113.53;;;11.92;100.00
44765;BME280;30484;52.382;5.260;2023-11-21T12:33:03;102120.94;;;12.11;100.00
44765;BME280;30484;52.382;5.260;2023-11-21T12:35:35;102116.28;;;12.16;100.00
44765;BME280;30484;52.382;5.260;2023-11-21T12:38:04;102124.81;;;12.02;100.00
44765;BME280;30484;52.382;5.260;2023-11-21T12:40:36;102126.59;;;12.03;100.00
44765;BME280;30484;52.382;5.260;2023-11-21T12:43:07;102127.19;;;12.12;100.00
44765;BME280;30484;52.382;5.260;2023-11-21T12:45:37;102134.28;;;12.13;100.00
44765;BME280;30484;52.382;5.260;2023-11-21T12:48:06;102143.22;;;12.13;100.00
44765;BME280;30484;52.382;5.260;2023-11-21T12:50:39;102156.22;;;11.99;100.00
44765;BME280;30484;52.382;5.260;2023-11-21T12:53:10;102161.56;;;11.99;100.00
44765;BME280;30484;52.382;5.260;2023-11-21T12:55:40;102169.31;;;12.06;100.00